DAOO/ORN METAR and TAF weather

Enter ICAO airport designator
Station Type Date Time Source
DAOO METAR 2021/01/16 02:30 UTC NOAA

DAOO 160230Z 14004KT CAVOK 07/05 Q1023


Station Type Date Time Source
DAOO Decoded METAR 2021/01/16 02:30 UTC NOAA

Oran / Es Senia, Algeria (DAOO) 35-38N 000-36W 90M
Jan 15, 2021 - 09:30 PM EST / 2021.01.16 0230 UTC
Wind: from the SE (140 degrees) at 5 MPH (4 KT):0
Visibility: greater than 7 mile(s):0
Temperature: 44 F (7 C)
Dew Point: 41 F (5 C)
Relative Humidity: 87%
Pressure (altimeter): 30.21 in. Hg (1023 hPa)
ob: DAOO 160230Z 14004KT CAVOK 07/05 Q1023
cycle: 2

Station Type Date Time Source
DAOO TAF 2021/01/15 18:33 UTC NOAA

TAF DAOO 151700Z 1518/1618 22008KT 9999 FEW023 SCT026
BECMG 1600/1603 VRB02KT PROB30
TEMPO 1603/1609 3000 BR SCT010
TEMPO 1612/0618 36012KT

Example: see airport list